Time;durP1;ratioP1;P1;durP2;ratioP2;P2;SDS_P1;SDS_P2;PMS_P1;PMS_P2;Temp;Humidity;BMP_temperature;BMP_pressure;BME280_temperature;BME280_humidity;BME280_pressure;Samples;Min_cycle;Max_cycle;Signal;HPM_P1;HPM_P2
2023/06/17 00:01:01;;;;;;;11.20;8.10;;;;;;;15.54;70.38;100432.96;110930;1211;139508;-62
2023/06/17 00:03:27;;;;;;;10.40;7.60;;;;;;;15.52;70.43;100428.80;110999;1208;99008;-62
2023/06/17 00:05:52;;;;;;;9.40;7.00;;;;;;;15.49;70.48;100427.72;110854;1211;140971;-63
2023/06/17 00:08:17;;;;;;;8.50;7.20;;;;;;;15.43;70.67;100427.20;111047;1211;98967;-62
2023/06/17 00:10:44;;;;;;;10.00;8.10;;;;;;;15.35;70.92;100422.37;111012;1208;98191;-62
2023/06/17 00:13:09;;;;;;;9.00;7.40;;;;;;;15.31;70.93;100418.50;110898;1211;140453;-63
2023/06/17 00:15:36;;;;;;;10.20;7.90;;;;;;;15.28;71.05;100420.14;111084;1211;99007;-62
2023/06/17 00:18:02;;;;;;;9.70;8.20;;;;;;;15.23;71.35;100417.02;110914;1211;140268;-62
2023/06/17 00:20:29;;;;;;;11.20;7.50;;;;;;;15.20;71.36;100416.50;111070;1211;98685;-63
2023/06/17 00:22:54;;;;;;;12.10;7.60;;;;;;;15.17;71.54;100409.86;110986;1211;99050;-63
2023/06/17 00:25:20;;;;;;;14.50;8.00;;;;;;;15.14;71.80;100414.05;110970;1208;141283;-63
2023/06/17 00:27:46;;;;;;;10.00;7.80;;;;;;;15.09;71.97;100414.73;110986;1211;99022;-63
2023/06/17 00:30:11;;;;;;;12.90;7.80;;;;;;;15.05;72.20;100417.52;110881;1208;141502;-63
2023/06/17 00:32:37;;;;;;;10.60;8.30;;;;;;;15.03;72.29;100417.65;111094;1212;99837;-63
2023/06/17 00:35:06;;;;;;;11.70;8.50;;;;;;;14.98;72.55;100416.55;110948;1211;98943;-63
2023/06/17 00:37:32;;;;;;;9.00;7.40;;;;;;;14.95;72.59;100413.87;110912;1211;140180;-64
2023/06/17 00:39:58;;;;;;;9.80;8.10;;;;;;;14.92;72.62;100411.20;111147;1208;98958;-63
2023/06/17 00:42:23;;;;;;;12.40;8.90;;;;;;;14.90;72.76;100414.54;110880;1211;138618;-63
2023/06/17 00:44:49;;;;;;;13.50;9.10;;;;;;;14.90;72.79;100415.46;110993;1224;97807;-63
2023/06/17 00:47:15;;;;;;;14.00;9.30;;;;;;;14.87;72.89;100420.11;110961;1211;101843;-63
2023/06/17 00:49:43;;;;;;;10.90;8.90;;;;;;;14.84;73.08;100417.83;110991;1208;139226;-63
2023/06/17 00:52:10;;;;;;;17.70;9.40;;;;;;;14.83;73.16;100418.64;110997;1211;98669;-63
2023/06/17 00:54:37;;;;;;;14.60;9.90;;;;;;;14.81;73.29;100416.77;110994;1208;140654;-63
2023/06/17 00:57:05;;;;;;;13.50;8.90;;;;;;;14.76;73.35;100419.24;111071;1211;99152;-63
2023/06/17 00:59:32;;;;;;;11.70;9.50;;;;;;;14.72;73.49;100422.58;111150;1208;141137;-63
2023/06/17 01:01:58;;;;;;;11.60;8.40;;;;;;;14.66;73.76;100417.90;111028;1212;99058;-63
2023/06/17 01:04:24;;;;;;;11.50;8.70;;;;;;;14.61;74.22;100422.38;110988;1208;98965;-63
2023/06/17 01:07:04;;;;;;;12.60;8.90;;;;;;;14.57;74.44;100416.12;111033;1208;139604;-63
2023/06/17 01:09:35;;;;;;;10.60;8.80;;;;;;;14.53;74.85;100420.19;110993;1209;100157;-64
2023/06/17 01:12:04;;;;;;;13.90;8.80;;;;;;;14.50;75.19;100416.91;110871;1209;139168;-63
2023/06/17 01:14:32;;;;;;;15.40;9.70;;;;;;;14.47;75.47;100416.58;111008;1211;98999;-63
2023/06/17 01:16:58;;;;;;;11.70;8.50;;;;;;;14.43;75.59;100417.20;111065;1211;99649;-63
2023/06/17 01:19:24;;;;;;;10.20;8.80;;;;;;;14.40;75.63;100414.48;110858;1208;139396;-63
2023/06/17 01:21:51;;;;;;;10.80;8.60;;;;;;;14.37;75.82;100410.89;111047;1213;100338;-63
2023/06/17 01:24:29;;;;;;;13.70;9.70;;;;;;;14.33;75.88;100411.51;110959;1208;139659;-63
2023/06/17 01:26:57;;;;;;;12.40;10.40;;;;;;;14.31;76.01;100409.65;111049;1208;99530;-63
2023/06/17 01:29:29;;;;;;;12.20;10.00;;;;;;;14.28;76.18;100408.39;111123;1208;112927;-63
2023/06/17 01:31:58;;;;;;;12.10;9.80;;;;;;;14.27;76.24;100405.74;111000;1211;141019;-63
2023/06/17 01:34:37;;;;;;;11.60;10.30;;;;;;;14.24;76.45;100412.92;110947;1208;107609;-63
2023/06/17 01:37:06;;;;;;;13.20;9.30;;;;;;;14.23;76.35;100407.29;110840;1208;139807;-63
2023/06/17 01:39:33;;;;;;;17.00;11.00;;;;;;;14.21;76.57;100408.09;111022;1227;99104;-63
2023/06/17 01:42:00;;;;;;;13.20;9.50;;;;;;;14.20;76.68;100408.58;110817;1212;139953;-63
2023/06/17 01:44:27;;;;;;;13.50;9.80;;;;;;;14.18;76.83;100408.14;111009;1212;98957;-63
2023/06/17 01:46:53;;;;;;;12.20;10.00;;;;;;;14.16;76.91;100404.86;111137;1211;99057;-63
2023/06/17 01:49:18;;;;;;;15.10;8.90;;;;;;;14.15;76.88;100404.02;110900;1211;140200;-63
2023/06/17 01:51:43;;;;;;;13.90;9.00;;;;;;;14.13;77.11;100401.44;110963;1211;112977;-63
2023/06/17 01:54:09;;;;;;;14.80;10.70;;;;;;;14.11;77.22;100403.90;110846;1211;141106;-63
2023/06/17 01:56:34;;;;;;;14.70;9.90;;;;;;;14.11;77.40;100400.67;111112;1209;99001;-63
2023/06/17 01:59:00;;;;;;;14.90;11.00;;;;;;;14.11;77.27;100402.27;110955;1211;98966;-63
2023/06/17 02:01:26;;;;;;;13.70;10.60;;;;;;;14.10;77.31;100404.66;110947;1213;139615;-63
2023/06/17 02:03:51;;;;;;;14.40;10.80;;;;;;;14.08;77.32;100401.94;110956;1211;107774;-64
2023/06/17 02:06:17;;;;;;;17.10;10.50;;;;;;;14.06;77.29;100406.17;110841;1208;139201;-63
2023/06/17 02:08:43;;;;;;;18.20;10.30;;;;;;;14.04;77.48;100404.18;111047;1220;98911;-63
2023/06/17 02:11:10;;;;;;;16.90;10.50;;;;;;;14.01;77.41;100407.04;110933;1208;100004;-63
2023/06/17 02:13:35;;;;;;;17.60;12.70;;;;;;;13.97;77.59;100407.46;111012;1208;139558;-63
2023/06/17 02:16:00;;;;;;;13.80;10.90;;;;;;;13.93;77.63;100406.63;111006;1208;98996;-63
2023/06/17 02:18:26;;;;;;;16.40;9.30;;;;;;;13.89;77.78;100404.35;110859;1207;139770;-63
2023/06/17 02:20:51;;;;;;;13.90;10.00;;;;;;;13.87;77.80;100405.90;111023;1208;99012;-63
2023/06/17 02:23:16;;;;;;;13.80;10.50;;;;;;;13.86;77.96;100403.63;110930;1207;98959;-63
2023/06/17 02:25:42;;;;;;;15.40;9.80;;;;;;;13.83;78.03;100403.27;110836;1211;140658;-63
2023/06/17 02:28:07;;;;;;;16.20;12.10;;;;;;;13.78;78.21;100400.92;111055;1211;99126;-63
2023/06/17 02:30:32;;;;;;;17.10;10.80;;;;;;;13.76;78.36;100401.20;110801;1208;139588;-64
2023/06/17 02:32:59;;;;;;;15.60;10.70;;;;;;;13.77;78.32;100402.23;111065;1212;100504;-63
2023/06/17 02:35:25;;;;;;;18.00;11.50;;;;;;;13.75;78.45;100401.95;110984;1213;113081;-63
2023/06/17 02:37:50;;;;;;;16.50;11.40;;;;;;;13.76;78.39;100406.58;110865;1214;141149;-63
2023/06/17 02:40:15;;;;;;;16.10;11.10;;;;;;;13.72;78.46;100404.66;110973;1208;98985;-63
2023/06/17 02:42:40;;;;;;;15.60;10.40;;;;;;;13.70;78.58;100405.35;110908;1212;139636;-63
2023/06/17 02:45:11;;;;;;;18.10;10.50;;;;;;;13.69;78.77;100406.86;111008;1211;99012;-64
2023/06/17 02:47:37;;;;;;;13.10;10.20;;;;;;;13.69;78.89;100404.72;110933;1214;140796;-63
2023/06/17 02:50:05;;;;;;;15.90;10.60;;;;;;;13.68;78.79;100403.30;110968;1211;99060;-63
2023/06/17 02:52:31;;;;;;;16.80;11.40;;;;;;;13.68;78.89;100402.07;110970;1208;99613;-63
2023/06/17 02:54:56;;;;;;;15.50;10.50;;;;;;;13.67;79.01;100403.73;110804;1211;141016;-63
2023/06/17 02:57:21;;;;;;;18.30;10.50;;;;;;;13.66;79.10;100401.09;111025;1208;99025;-64
2023/06/17 02:59:47;;;;;;;17.50;10.40;;;;;;;13.66;79.17;100399.98;110869;1211;140868;-64
2023/06/17 03:02:12;;;;;;;16.30;11.10;;;;;;;13.66;79.19;100405.39;111044;1211;98939;-63
2023/06/17 03:04:38;;;;;;;12.40;10.40;;;;;;;13.67;79.32;100406.63;111029;1211;99032;-63
2023/06/17 03:07:04;;;;;;;16.40;10.60;;;;;;;13.67;79.33;100407.83;110851;1211;140028;-63
2023/06/17 03:09:30;;;;;;;13.10;10.10;;;;;;;13.69;79.52;100408.45;111121;1208;98474;-63
2023/06/17 03:11:55;;;;;;;18.10;11.70;;;;;;;13.73;79.59;100408.73;110846;1211;142067;-63
2023/06/17 03:14:20;;;;;;;18.90;10.20;;;;;;;13.75;79.55;100410.77;110967;1211;98938;-63
2023/06/17 03:16:46;;;;;;;17.50;11.50;;;;;;;13.78;79.63;100411.66;111076;1211;99045;-63
2023/06/17 03:19:14;;;;;;;15.90;10.10;;;;;;;13.79;79.56;100411.22;110858;1214;139765;-63
2023/06/17 03:21:42;;;;;;;15.50;10.30;;;;;;;13.80;79.70;100409.92;110995;1211;99116;-63
2023/06/17 03:24:08;;;;;;;13.80;10.80;;;;;;;13.81;79.79;100409.50;110894;1211;139216;-63
2023/06/17 03:26:34;;;;;;;19.30;11.30;;;;;;;13.83;79.87;100404.16;111076;1211;99041;-63
2023/06/17 03:28:59;;;;;;;16.50;10.20;;;;;;;13.85;79.90;100410.52;111039;1211;98984;-63
2023/06/17 03:31:25;;;;;;;14.00;10.80;;;;;;;13.87;79.93;100408.23;110864;1211;141513;-63
2023/06/17 03:33:52;;;;;;;14.20;10.70;;;;;;;13.88;79.91;100410.16;110991;1208;98957;-63
2023/06/17 03:36:18;;;;;;;17.30;10.70;;;;;;;13.86;79.92;100415.28;110931;1211;140416;-63
2023/06/17 03:38:44;;;;;;;14.80;10.40;;;;;;;13.83;80.05;100421.42;111068;1208;99039;-63
2023/06/17 03:41:10;;;;;;;16.10;11.30;;;;;;;13.81;80.17;100422.80;110974;1214;112530;-63
2023/06/17 03:43:35;;;;;;;14.90;11.00;;;;;;;13.80;80.25;100421.06;110861;1208;139934;-63
2023/06/17 03:46:00;;;;;;;14.30;11.20;;;;;;;13.77;80.34;100421.08;111026;1211;99005;-63
2023/06/17 03:48:26;;;;;;;15.50;10.90;;;;;;;13.72;80.40;100420.65;110869;1211;138954;-63
2023/06/17 03:50:51;;;;;;;15.00;11.20;;;;;;;13.69;80.68;100422.27;111060;1211;98978;-65
2023/06/17 03:53:16;;;;;;;14.30;10.60;;;;;;;13.68;80.65;100422.14;110973;1208;99007;-63
2023/06/17 03:55:41;;;;;;;20.70;11.60;;;;;;;13.68;80.86;100426.65;110915;1211;139661;-63
2023/06/17 03:58:06;;;;;;;14.30;11.40;;;;;;;13.68;81.01;100424.52;111106;1209;97790;-63
2023/06/17 04:00:32;;;;;;;17.50;11.40;;;;;;;13.67;81.00;100428.16;110928;1211;139886;-62
2023/06/17 04:02:57;;;;;;;17.20;11.70;;;;;;;13.64;81.20;100424.52;111056;1208;98964;-63
2023/06/17 04:05:31;;;;;;;18.00;12.90;;;;;;;13.63;81.47;100430.14;111033;1211;100257;-62
2023/06/17 04:07:58;;;;;;;18.00;12.60;;;;;;;13.63;81.70;100430.52;110967;1208;113178;-63
2023/06/17 04:10:24;;;;;;;20.90;13.60;;;;;;;13.65;81.63;100432.20;111010;1211;98941;-62
2023/06/17 04:12:49;;;;;;;23.20;13.20;;;;;;;13.70;81.77;100430.66;110849;1208;139752;-62
2023/06/17 04:15:15;;;;;;;19.50;12.60;;;;;;;13.73;81.82;100427.94;111017;1214;99046;-63
2023/06/17 04:17:40;;;;;;;20.00;12.70;;;;;;;13.78;81.87;100426.73;110821;1208;140416;-63
2023/06/17 04:20:12;;;;;;;20.40;11.50;;;;;;;13.85;81.96;100427.91;111018;1211;99038;-62
2023/06/17 04:22:39;;;;;;;19.20;13.40;;;;;;;13.93;82.00;100427.83;111039;1211;99006;-63
2023/06/17 04:25:05;;;;;;;15.50;10.90;;;;;;;13.99;82.12;100429.96;110979;1211;139698;-63
2023/06/17 04:27:31;;;;;;;25.10;12.00;;;;;;;14.04;82.30;100426.64;111096;1209;99365;-63
2023/06/17 04:29:56;;;;;;;19.60;12.60;;;;;;;14.12;82.47;100425.23;110932;1208;139760;-63
2023/06/17 04:32:26;;;;;;;18.70;12.20;;;;;;;14.24;82.61;100420.17;110948;1214;97873;-63
2023/06/17 04:34:52;;;;;;;17.90;10.70;;;;;;;14.37;82.54;100421.71;110990;1223;99449;-63
2023/06/17 04:37:18;;;;;;;20.40;12.20;;;;;;;14.47;82.52;100418.38;110841;1211;140111;-63
2023/06/17 04:39:44;;;;;;;22.20;11.20;;;;;;;14.57;82.44;100420.28;111041;1208;100117;-64
2023/06/17 04:42:10;;;;;;;17.60;11.00;;;;;;;14.70;82.44;100420.73;110839;1211;141556;-64
2023/06/17 04:44:37;;;;;;;15.40;10.00;;;;;;;14.80;82.51;100420.05;110994;1211;99065;-63
2023/06/17 04:47:04;;;;;;;19.00;10.80;;;;;;;14.92;82.59;100413.51;110984;1211;99077;-63
2023/06/17 04:49:31;;;;;;;14.80;10.80;;;;;;;15.05;82.62;100415.54;111084;1209;139556;-63
2023/06/17 04:51:56;;;;;;;14.40;10.00;;;;;;;15.11;82.53;100410.33;111111;1209;99060;-63
2023/06/17 04:54:24;;;;;;;16.20;10.60;;;;;;;15.24;82.70;100413.02;110951;1211;139889;-63
2023/06/17 04:56:51;;;;;;;15.80;10.00;;;;;;;15.41;82.78;100407.90;110998;1214;112905;-63
2023/06/17 04:59:19;;;;;;;10.60;8.70;;;;;;;15.58;82.50;100408.39;110984;1211;99025;-64
2023/06/17 05:01:44;;;;;;;13.50;8.90;;;;;;;15.72;82.47;100403.83;110896;1211;139464;-63
2023/06/17 05:04:09;;;;;;;15.00;9.60;;;;;;;15.85;82.26;100407.27;110996;1211;97804;-63
2023/06/17 05:06:35;;;;;;;15.40;9.00;;;;;;;15.95;82.23;100408.21;110966;1211;141151;-63
2023/06/17 05:09:00;;;;;;;11.60;8.30;;;;;;;16.09;82.34;100406.33;110946;1211;99008;-63
2023/06/17 05:11:26;;;;;;;9.80;8.20;;;;;;;16.24;82.31;100408.50;111010;1220;98951;-63
2023/06/17 05:13:51;;;;;;;9.80;7.90;;;;;;;16.36;82.01;100405.30;111017;1214;139083;-63
2023/06/17 05:16:16;;;;;;;12.10;8.10;;;;;;;16.43;81.91;100399.92;110972;1211;98980;-63
2023/06/17 05:18:42;;;;;;;11.00;7.40;;;;;;;16.54;81.86;100397.83;110936;1211;140009;-63
2023/06/17 05:21:07;;;;;;;11.90;8.20;;;;;;;16.64;81.61;100395.02;110918;1211;98942;-64
2023/06/17 05:23:32;;;;;;;10.90;7.80;;;;;;;16.69;81.39;100389.93;110933;1211;139335;-63
2023/06/17 05:25:57;;;;;;;10.90;7.20;;;;;;;16.77;81.23;100389.91;111000;1210;99474;-64
2023/06/17 05:28:23;;;;;;;21.60;8.60;;;;;;;16.81;81.00;100389.08;111017;1211;98940;-63
2023/06/17 05:30:48;;;;;;;9.50;6.90;;;;;;;16.83;80.82;100389.47;110894;1211;139072;-64
2023/06/17 05:33:13;;;;;;;14.60;7.40;;;;;;;16.83;80.77;100390.38;110968;1211;99032;-64
2023/06/17 05:35:38;;;;;;;9.40;6.80;;;;;;;16.85;80.59;100389.85;110925;1221;140466;-63
2023/06/17 05:38:04;;;;;;;9.00;5.80;;;;;;;16.87;80.44;100393.70;110941;1208;99100;-64
2023/06/17 05:40:29;;;;;;;10.00;6.30;;;;;;;16.81;80.24;100389.92;111059;1211;98976;-64
2023/06/17 05:42:54;;;;;;;10.10;6.50;;;;;;;16.77;79.94;100386.05;110856;1214;139025;-64
2023/06/17 05:45:19;;;;;;;8.90;5.10;;;;;;;16.82;79.87;100383.73;111023;1212;98988;-64
2023/06/17 05:47:46;;;;;;;9.40;5.00;;;;;;;16.86;79.68;100385.28;110875;1224;140614;-63
2023/06/17 05:50:11;;;;;;;8.30;5.50;;;;;;;16.91;79.47;100385.83;110961;1208;99042;-64
2023/06/17 05:52:36;;;;;;;7.50;4.90;;;;;;;16.96;79.27;100390.69;111060;1213;98945;-64
2023/06/17 05:55:01;;;;;;;11.20;5.60;;;;;;;17.02;79.14;100390.40;110840;1209;139399;-63
2023/06/17 05:57:26;;;;;;;7.30;5.40;;;;;;;17.09;78.75;100391.83;111042;1214;99112;-64
2023/06/17 05:59:52;;;;;;;10.80;5.80;;;;;;;17.16;78.71;100391.45;110870;1208;140292;-63
2023/06/17 06:02:17;;;;;;;6.40;5.00;;;;;;;17.23;78.52;100392.65;110933;1212;98990;-63
2023/06/17 06:04:42;;;;;;;8.60;5.30;;;;;;;17.27;78.18;100392.54;111053;1208;97496;-64
2023/06/17 06:07:07;;;;;;;6.60;5.20;;;;;;;17.33;77.93;100390.09;110823;1220;139531;-63
2023/06/17 06:09:32;;;;;;;8.30;5.80;;;;;;;17.41;77.55;100389.83;111048;1214;100588;-64
2023/06/17 06:11:58;;;;;;;10.10;6.30;;;;;;;17.47;77.47;100386.61;110858;1212;141377;-64
2023/06/17 06:14:23;;;;;;;11.20;6.60;;;;;;;17.51;77.23;100388.10;111037;1212;99078;-63
2023/06/17 06:16:48;;;;;;;5.80;5.00;;;;;;;17.56;77.05;100386.66;110997;1214;99113;-63
2023/06/17 06:19:14;;;;;;;7.70;6.00;;;;;;;17.59;76.91;100389.91;110847;1212;140494;-63
2023/06/17 06:21:39;;;;;;;12.70;7.30;;;;;;;17.66;76.76;100394.23;111064;1214;99138;-63
2023/06/17 06:24:05;;;;;;;8.30;5.20;;;;;;;17.71;76.54;100394.72;110862;1212;141599;-63
2023/06/17 06:26:30;;;;;;;14.00;6.40;;;;;;;17.73;76.29;100402.73;111045;1211;99047;-63
2023/06/17 06:28:55;;;;;;;14.20;6.30;;;;;;;17.72;76.11;100403.77;110972;1214;99015;-64
2023/06/17 06:31:21;;;;;;;7.00;5.40;;;;;;;17.69;75.93;100399.81;110835;1210;139613;-63
2023/06/17 06:33:47;;;;;;;9.60;5.80;;;;;;;17.72;75.81;100402.86;111076;1221;99029;-63
2023/06/17 06:36:12;;;;;;;7.30;5.60;;;;;;;17.77;75.73;100404.05;110842;1212;138968;-64
2023/06/17 06:38:37;;;;;;;7.30;5.00;;;;;;;17.81;75.75;100403.16;111017;1208;99931;-64
2023/06/17 06:41:02;;;;;;;11.10;5.10;;;;;;;17.85;75.52;100407.42;110937;1208;99140;-64
2023/06/17 06:43:27;;;;;;;5.10;4.60;;;;;;;17.89;75.23;100410.94;110839;1211;139949;-65
2023/06/17 06:45:53;;;;;;;8.80;5.20;;;;;;;17.88;74.72;100410.45;111047;1213;99026;-64
2023/06/17 06:48:19;;;;;;;8.40;5.10;;;;;;;17.92;74.61;100408.34;110829;1212;139762;-64
2023/06/17 06:50:45;;;;;;;11.10;4.90;;;;;;;17.98;74.52;100404.64;110952;1212;98981;-64
2023/06/17 06:53:10;;;;;;;6.20;4.80;;;;;;;18.04;74.38;100405.18;110972;1212;99021;-65
2023/06/17 06:55:35;;;;;;;9.60;5.00;;;;;;;18.10;74.16;100406.55;110846;1212;139703;-64
2023/06/17 06:58:01;;;;;;;8.90;4.40;;;;;;;18.15;73.92;100401.23;111005;1212;98996;-64
2023/06/17 07:00:26;;;;;;;7.90;5.00;;;;;;;18.21;73.70;100402.98;110838;1211;138818;-64
2023/06/17 07:02:52;;;;;;;7.80;4.90;;;;;;;18.27;73.57;100402.43;110962;1210;99688;-64
2023/06/17 07:05:17;;;;;;;8.80;4.20;;;;;;;18.34;73.34;100400.98;110941;1212;99087;-64
2023/06/17 07:07:42;;;;;;;7.10;4.70;;;;;;;18.40;72.88;100402.30;110837;1214;138730;-64
2023/06/17 07:10:07;;;;;;;7.90;4.50;;;;;;;18.46;72.74;100399.46;111015;1209;99003;-64
2023/06/17 07:12:33;;;;;;;6.50;4.60;;;;;;;18.53;72.76;100398.36;110910;1211;140001;-64
2023/06/17 07:14:58;;;;;;;4.80;4.30;;;;;;;18.62;72.39;100396.81;111095;1221;98938;-64
2023/06/17 07:17:23;;;;;;;8.10;4.60;;;;;;;18.69;72.26;100397.80;110935;1210;99094;-64
2023/06/17 07:19:48;;;;;;;5.40;4.90;;;;;;;18.76;71.99;100402.36;110914;1222;138507;-64
2023/06/17 07:22:13;;;;;;;9.30;4.70;;;;;;;18.76;71.60;100409.02;110962;1212;98158;-64
2023/06/17 07:24:39;;;;;;;6.70;4.60;;;;;;;18.76;71.43;100404.52;110857;1212;138418;-64
2023/06/17 07:27:04;;;;;;;6.00;3.90;;;;;;;18.77;71.23;100405.84;111020;1209;99095;-64
2023/06/17 07:29:30;;;;;;;7.10;4.90;;;;;;;18.82;70.79;100405.41;110954;1214;99017;-65
2023/06/17 07:31:55;;;;;;;5.90;4.50;;;;;;;18.86;70.38;100408.05;110912;1221;138012;-64
2023/06/17 07:34:20;;;;;;;6.30;4.50;;;;;;;18.90;69.83;100402.45;110947;1223;99047;-64
2023/06/17 07:36:45;;;;;;;6.40;3.30;;;;;;;18.97;69.43;100409.28;110870;1212;138730;-64
2023/06/17 07:39:12;;;;;;;5.50;3.40;;;;;;;19.04;69.34;100406.14;110985;1212;98943;-64
2023/06/17 07:41:37;;;;;;;4.30;3.60;;;;;;;19.09;69.07;100408.95;110879;1209;139923;-64
2023/06/17 07:44:02;;;;;;;8.00;4.00;;;;;;;19.15;68.78;100407.96;110991;1212;99127;-65
2023/06/17 07:46:28;;;;;;;7.20;4.10;;;;;;;19.21;68.76;100405.89;110963;1214;100497;-64
2023/06/17 07:48:53;;;;;;;5.70;3.70;;;;;;;19.29;68.51;100405.01;110890;1212;138324;-64
2023/06/17 07:51:18;;;;;;;6.60;4.20;;;;;;;19.37;68.53;100406.87;111056;1212;98701;-63
2023/06/17 07:53:43;;;;;;;6.20;4.10;;;;;;;19.45;68.25;100411.81;110881;1208;139213;-63
2023/06/17 07:56:09;;;;;;;6.20;4.00;;;;;;;19.46;67.94;100411.02;110981;1212;99057;-63
2023/06/17 07:58:34;;;;;;;6.10;4.40;;;;;;;19.45;67.65;100413.73;110958;1210;99523;-63
2023/06/17 08:01:00;;;;;;;6.20;4.20;;;;;;;19.52;67.71;100405.77;110838;1212;138038;-63
2023/06/17 08:03:27;;;;;;;6.60;4.70;;;;;;;19.61;67.51;100406.29;111019;1212;98911;-63
2023/06/17 08:05:52;;;;;;;11.00;4.80;;;;;;;19.70;67.11;100407.14;110831;1212;140750;-63
2023/06/17 08:08:17;;;;;;;7.70;4.00;;;;;;;19.84;66.97;100403.12;110891;1212;99003;-63
2023/06/17 08:10:43;;;;;;;3.60;3.10;;;;;;;19.94;66.68;100407.45;111064;1212;99057;-63
2023/06/17 08:13:08;;;;;;;6.70;4.00;;;;;;;20.00;66.58;100405.85;110848;1222;138947;-63
2023/06/17 08:15:35;;;;;;;6.10;4.50;;;;;;;20.05;66.31;100407.63;111073;1212;99037;-63
2023/06/17 08:18:00;;;;;;;4.70;4.00;;;;;;;20.11;66.24;100404.04;110840;1212;139745;-63
2023/06/17 08:20:25;;;;;;;13.30;4.50;;;;;;;20.21;66.04;100405.50;110900;1209;99115;-63
2023/06/17 08:22:50;;;;;;;6.30;5.10;;;;;;;20.28;65.66;100403.77;111019;1212;98943;-63
2023/06/17 08:25:16;;;;;;;6.80;4.60;;;;;;;20.28;65.42;100403.02;110812;1209;139364;-64
2023/06/17 08:27:47;;;;;;;7.30;4.80;;;;;;;20.28;65.49;100403.27;111002;1215;99042;-63
2023/06/17 08:30:12;;;;;;;5.20;4.40;;;;;;;20.29;65.25;100397.32;110880;1212;139998;-63
2023/06/17 08:32:38;;;;;;;9.00;4.90;;;;;;;20.35;65.14;100398.45;110937;1212;99058;-63
2023/06/17 08:35:06;;;;;;;6.70;4.90;;;;;;;20.38;64.78;100406.89;110970;1221;98969;-63
2023/06/17 08:37:34;;;;;;;4.80;4.30;;;;;;;20.30;64.59;100406.83;110941;1221;140830;-63
2023/06/17 08:40:00;;;;;;;6.00;5.00;;;;;;;20.32;64.47;100408.29;110938;1213;99117;-63
2023/06/17 08:42:27;;;;;;;9.50;4.80;;;;;;;20.32;64.26;100410.52;110894;1212;138027;-63
2023/06/17 08:44:54;;;;;;;6.70;4.20;;;;;;;20.23;63.95;100410.02;110953;1212;98923;-63
2023/06/17 08:47:20;;;;;;;9.20;4.70;;;;;;;20.15;63.86;100409.42;110950;1210;99067;-63
2023/06/17 08:49:46;;;;;;;11.20;4.50;;;;;;;20.14;63.78;100408.81;110890;1210;138423;-63
2023/06/17 08:52:13;;;;;;;6.40;4.60;;;;;;;20.17;63.61;100408.59;110965;1212;99024;-63
2023/06/17 08:54:42;;;;;;;5.30;4.40;;;;;;;20.14;63.34;100403.77;110896;1209;139257;-63
2023/06/17 08:57:12;;;;;;;4.80;3.80;;;;;;;20.15;62.81;100399.70;110993;1212;99006;-64
2023/06/17 08:59:38;;;;;;;6.60;4.20;;;;;;;20.13;62.55;100396.96;110879;1212;139002;-63
2023/06/17 09:02:05;;;;;;;9.80;4.20;;;;;;;20.15;62.54;100398.44;110957;1212;98964;-63
2023/06/17 09:04:31;;;;;;;5.30;4.30;;;;;;;20.21;62.56;100397.88;111067;1209;99005;-63
2023/06/17 09:06:56;;;;;;;9.60;3.60;;;;;;;20.36;62.67;100396.52;110988;1212;139918;-63
2023/06/17 09:09:21;;;;;;;4.60;3.60;;;;;;;20.54;62.40;100397.18;110962;1212;99054;-63
2023/06/17 09:11:51;;;;;;;6.20;3.30;;;;;;;20.65;62.05;100392.92;110966;1212;140354;-63
2023/06/17 09:14:18;;;;;;;6.30;3.70;;;;;;;20.76;61.73;100397.50;110947;1212;104929;-63
2023/06/17 09:16:44;;;;;;;4.90;4.40;;;;;;;20.76;60.83;100399.73;111056;1209;98959;-63
2023/06/17 09:19:09;;;;;;;7.10;4.30;;;;;;;20.64;60.65;100392.23;110984;1212;139166;-63
2023/06/17 09:21:36;;;;;;;4.10;3.60;;;;;;;20.60;60.54;100389.04;111037;1208;99259;-64
2023/06/17 09:24:06;;;;;;;7.10;4.30;;;;;;;20.73;60.64;100390.02;110979;1212;140088;-64
2023/06/17 09:26:34;;;;;;;6.70;5.00;;;;;;;20.90;60.52;100390.17;110968;1212;99070;-63
2023/06/17 09:29:07;;;;;;;8.70;5.10;;;;;;;20.96;60.51;100384.80;110920;1209;101465;-64
2023/06/17 09:31:45;;;;;;;5.30;4.80;;;;;;;20.99;60.36;100389.37;110860;1210;138315;-63
2023/06/17 09:34:11;;;;;;;10.70;5.10;;;;;;;21.10;60.52;100386.21;110958;1212;99008;-63
2023/06/17 09:36:38;;;;;;;6.00;5.30;;;;;;;21.25;60.45;100384.48;110903;1222;139109;-63
2023/06/17 09:39:09;;;;;;;8.70;5.90;;;;;;;21.34;59.86;100389.30;111063;1212;99438;-63
2023/06/17 09:41:39;;;;;;;7.90;5.00;;;;;;;21.25;59.42;100387.27;110935;1212;138126;-64
2023/06/17 09:44:05;;;;;;;5.90;4.60;;;;;;;21.17;59.72;100386.71;111000;1212;99143;-64
2023/06/17 09:46:39;;;;;;;8.40;4.70;;;;;;;21.19;59.56;100384.83;111028;1208;98937;-64
2023/06/17 09:49:21;;;;;;;5.80;4.70;;;;;;;21.28;59.60;100379.09;110870;1212;139245;-64
2023/06/17 09:51:47;;;;;;;5.70;5.00;;;;;;;21.44;59.64;100376.91;110963;1212;99203;-63
2023/06/17 09:54:13;;;;;;;5.10;3.90;;;;;;;21.56;59.07;100377.95;110849;1212;140420;-64
2023/06/17 09:56:38;;;;;;;5.70;4.30;;;;;;;21.55;58.51;100375.14;111122;1212;99164;-64
2023/06/17 09:59:07;;;;;;;5.70;4.60;;;;;;;21.47;58.38;100369.54;110989;1211;99063;-64
2023/06/17 10:01:38;;;;;;;6.20;4.20;;;;;;;21.50;58.47;100366.92;110929;1212;138005;-64
2023/06/17 10:04:03;;;;;;;4.30;3.90;;;;;;;21.63;58.18;100371.29;110979;1212;99099;-63
2023/06/17 10:06:30;;;;;;;4.90;4.20;;;;;;;21.74;57.83;100372.34;110870;1221;138794;-63
2023/06/17 10:08:57;;;;;;;8.30;3.90;;;;;;;21.72;57.20;100374.84;111125;1209;98928;-63
2023/06/17 10:11:24;;;;;;;6.30;4.20;;;;;;;21.63;56.54;100379.13;111123;1212;98951;-64
2023/06/17 10:13:54;;;;;;;8.80;4.20;;;;;;;21.53;56.43;100371.58;110964;1212;137864;-63
2023/06/17 10:16:23;;;;;;;4.90;3.60;;;;;;;21.48;56.41;100371.52;111130;1209;98937;-64
2023/06/17 10:18:51;;;;;;;4.40;3.90;;;;;;;21.38;55.87;100371.34;110924;1212;139098;-64
2023/06/17 10:21:19;;;;;;;8.30;4.10;;;;;;;21.33;55.74;100374.89;110998;1210;98937;-63
2023/06/17 10:23:46;;;;;;;7.10;3.90;;;;;;;21.28;55.43;100376.92;110858;1211;139678;-63
2023/06/17 10:26:12;;;;;;;4.50;3.70;;;;;;;21.17;54.90;100375.96;110995;1211;99103;-63
2023/06/17 10:29:01;;;;;;;5.00;3.90;;;;;;;21.06;55.14;100375.13;111051;1210;99030;-63
2023/06/17 10:31:32;;;;;;;5.10;4.20;;;;;;;21.02;55.07;100374.98;110913;1208;139858;-64
2023/06/17 10:34:01;;;;;;;6.20;4.50;;;;;;;21.00;54.97;100371.11;110997;1211;99147;-64
2023/06/17 10:36:28;;;;;;;5.20;4.30;;;;;;;21.03;54.94;100373.74;110853;1210;137964;-63
2023/06/17 10:38:58;;;;;;;6.00;4.30;;;;;;;21.08;55.20;100371.32;111024;1210;99031;-63
2023/06/17 10:41:42;;;;;;;4.40;3.90;;;;;;;21.18;55.29;100371.69;111038;1212;98677;-64
2023/06/17 10:44:19;;;;;;;5.20;4.50;;;;;;;21.26;54.79;100375.89;110977;1212;104188;-64
2023/06/17 10:46:46;;;;;;;5.60;4.50;;;;;;;21.26;54.59;100368.97;111022;1212;98957;-64
2023/06/17 10:49:14;;;;;;;6.00;5.00;;;;;;;21.37;54.91;100363.07;110853;1211;139779;-64
2023/06/17 10:51:46;;;;;;;3.80;3.40;;;;;;;21.48;54.53;100362.42;111009;1228;100286;-63
2023/06/17 10:54:11;;;;;;;7.00;5.30;;;;;;;21.46;54.36;100364.37;110970;1209;139367;-64
2023/06/17 10:56:49;;;;;;;8.10;4.90;;;;;;;21.50;54.46;100366.35;111031;1212;99041;-63
2023/06/17 10:59:14;;;;;;;5.90;4.10;;;;;;;21.51;54.49;100363.14;111095;1210;99097;-63
2023/06/17 11:01:41;;;;;;;6.60;4.90;;;;;;;21.60;54.52;100363.05;110886;1212;140149;-64
2023/06/17 11:04:07;;;;;;;5.40;4.00;;;;;;;21.62;54.29;100360.84;111039;1209;97904;-64